sensor_id;sensor_type;location;lat;lon;timestamp;temperature;humidity
15638;DHT22;26604;53.596;10.042;2023-03-01T00:02:08;0.10;99.90
15638;DHT22;26604;53.596;10.042;2023-03-01T00:04:35;0.20;99.90
15638;DHT22;26604;53.596;10.042;2023-03-01T00:07:06;0.30;99.90
15638;DHT22;26604;53.596;10.042;2023-03-01T00:09:32;0.40;99.90
15638;DHT22;26604;53.596;10.042;2023-03-01T00:12:00;0.50;99.90
15638;DHT22;26604;53.596;10.042;2023-03-01T00:14:26;0.60;99.90
15638;DHT22;26604;53.596;10.042;2023-03-01T00:16:53;0.70;99.90
15638;DHT22;26604;53.596;10.042;2023-03-01T00:19:20;0.80;99.90
15638;DHT22;26604;53.596;10.042;2023-03-01T00:21:47;0.80;99.90
15638;DHT22;26604;53.596;10.042;2023-03-01T00:24:15;0.70;99.90
15638;DHT22;26604;53.596;10.042;2023-03-01T00:26:42;0.70;99.90
15638;DHT22;26604;53.596;10.042;2023-03-01T00:29:09;0.60;99.90
15638;DHT22;26604;53.596;10.042;2023-03-01T00:31:35;0.60;99.90
15638;DHT22;26604;53.596;10.042;2023-03-01T00:34:03;0.50;99.90
15638;DHT22;26604;53.596;10.042;2023-03-01T00:36:30;0.50;99.90
15638;DHT22;26604;53.596;10.042;2023-03-01T00:38:57;0.50;99.90
15638;DHT22;26604;53.596;10.042;2023-03-01T00:41:25;0.50;99.90
15638;DHT22;26604;53.596;10.042;2023-03-01T00:43:52;0.50;99.90
15638;DHT22;26604;53.596;10.042;2023-03-01T00:46:20;0.50;99.90
15638;DHT22;26604;53.596;10.042;2023-03-01T00:48:47;0.50;99.90
15638;DHT22;26604;53.596;10.042;2023-03-01T00:51:14;0.50;99.90
15638;DHT22;26604;53.596;10.042;2023-03-01T00:53:41;0.50;99.90
15638;DHT22;26604;53.596;10.042;2023-03-01T00:56:09;0.50;99.90
15638;DHT22;26604;53.596;10.042;2023-03-01T00:58:37;0.40;99.90
15638;DHT22;26604;53.596;10.042;2023-03-01T01:01:07;0.40;99.90
15638;DHT22;26604;53.596;10.042;2023-03-01T01:03:42;0.40;99.90
15638;DHT22;26604;53.596;10.042;2023-03-01T01:06:12;0.40;99.90
15638;DHT22;26604;53.596;10.042;2023-03-01T01:08:39;0.30;99.90
15638;DHT22;26604;53.596;10.042;2023-03-01T01:11:08;0.30;99.90
15638;DHT22;26604;53.596;10.042;2023-03-01T01:13:34;0.40;99.90
15638;DHT22;26604;53.596;10.042;2023-03-01T01:16:03;0.30;99.90
15638;DHT22;26604;53.596;10.042;2023-03-01T01:18:30;0.30;99.90
15638;DHT22;26604;53.596;10.042;2023-03-01T01:20:57;0.30;99.90
15638;DHT22;26604;53.596;10.042;2023-03-01T01:23:23;0.40;99.90
15638;DHT22;26604;53.596;10.042;2023-03-01T01:25:50;0.40;99.90
15638;DHT22;26604;53.596;10.042;2023-03-01T01:28:16;0.50;99.90
15638;DHT22;26604;53.596;10.042;2023-03-01T01:30:57;0.50;99.90
15638;DHT22;26604;53.596;10.042;2023-03-01T01:33:25;0.50;99.90
15638;DHT22;26604;53.596;10.042;2023-03-01T01:35:52;0.50;99.90
15638;DHT22;26604;53.596;10.042;2023-03-01T01:38:18;0.50;99.90
15638;DHT22;26604;53.596;10.042;2023-03-01T01:40:46;0.40;99.90
15638;DHT22;26604;53.596;10.042;2023-03-01T01:43:16;0.40;99.90
15638;DHT22;26604;53.596;10.042;2023-03-01T01:45:44;0.30;99.90
15638;DHT22;26604;53.596;10.042;2023-03-01T01:48:13;0.30;99.90
15638;DHT22;26604;53.596;10.042;2023-03-01T01:50:42;0.30;99.90
15638;DHT22;26604;53.596;10.042;2023-03-01T01:53:11;0.30;99.90
15638;DHT22;26604;53.596;10.042;2023-03-01T01:55:39;0.30;99.90
15638;DHT22;26604;53.596;10.042;2023-03-01T01:58:08;0.30;99.90
15638;DHT22;26604;53.596;10.042;2023-03-01T02:00:35;0.40;99.90
15638;DHT22;26604;53.596;10.042;2023-03-01T02:03:04;0.40;99.90
15638;DHT22;26604;53.596;10.042;2023-03-01T02:05:35;0.40;99.90
15638;DHT22;26604;53.596;10.042;2023-03-01T02:08:04;0.40;99.90
15638;DHT22;26604;53.596;10.042;2023-03-01T02:10:31;0.40;99.90
15638;DHT22;26604;53.596;10.042;2023-03-01T02:12:59;0.50;99.90
15638;DHT22;26604;53.596;10.042;2023-03-01T02:15:26;0.50;99.90
15638;DHT22;26604;53.596;10.042;2023-03-01T02:17:53;0.30;99.90
15638;DHT22;26604;53.596;10.042;2023-03-01T02:20:22;0.50;99.90
15638;DHT22;26604;53.596;10.042;2023-03-01T02:22:49;0.40;99.90
15638;DHT22;26604;53.596;10.042;2023-03-01T02:25:26;0.40;99.90
15638;DHT22;26604;53.596;10.042;2023-03-01T02:27:55;0.40;99.90
15638;DHT22;26604;53.596;10.042;2023-03-01T02:30:33;0.50;99.90
15638;DHT22;26604;53.596;10.042;2023-03-01T02:33:00;0.50;99.90
15638;DHT22;26604;53.596;10.042;2023-03-01T02:35:28;0.50;99.90
15638;DHT22;26604;53.596;10.042;2023-03-01T02:37:55;0.50;99.90
15638;DHT22;26604;53.596;10.042;2023-03-01T02:40:22;0.50;99.90
15638;DHT22;26604;53.596;10.042;2023-03-01T02:42:50;0.50;99.90
15638;DHT22;26604;53.596;10.042;2023-03-01T02:45:17;0.60;99.90
15638;DHT22;26604;53.596;10.042;2023-03-01T02:47:45;0.60;99.90
15638;DHT22;26604;53.596;10.042;2023-03-01T02:50:18;0.60;99.90
15638;DHT22;26604;53.596;10.042;2023-03-01T02:52:50;0.60;99.90
15638;DHT22;26604;53.596;10.042;2023-03-01T02:55:19;0.60;99.90
15638;DHT22;26604;53.596;10.042;2023-03-01T02:57:46;0.60;99.90
15638;DHT22;26604;53.596;10.042;2023-03-01T03:00:17;0.60;99.90
15638;DHT22;26604;53.596;10.042;2023-03-01T03:02:46;0.60;99.90
15638;DHT22;26604;53.596;10.042;2023-03-01T03:05:15;0.60;99.90
15638;DHT22;26604;53.596;10.042;2023-03-01T03:07:43;0.60;99.90
15638;DHT22;26604;53.596;10.042;2023-03-01T03:10:11;0.60;99.90
15638;DHT22;26604;53.596;10.042;2023-03-01T03:12:38;0.60;99.90
15638;DHT22;26604;53.596;10.042;2023-03-01T03:15:06;0.50;99.90
15638;DHT22;26604;53.596;10.042;2023-03-01T03:17:34;0.60;99.90
15638;DHT22;26604;53.596;10.042;2023-03-01T03:20:02;0.60;99.90
15638;DHT22;26604;53.596;10.042;2023-03-01T03:22:30;0.50;99.90
15638;DHT22;26604;53.596;10.042;2023-03-01T03:24:56;0.60;99.90
15638;DHT22;26604;53.596;10.042;2023-03-01T03:27:23;0.60;99.90
15638;DHT22;26604;53.596;10.042;2023-03-01T03:29:49;0.60;99.90
15638;DHT22;26604;53.596;10.042;2023-03-01T03:32:16;0.70;99.90
15638;DHT22;26604;53.596;10.042;2023-03-01T03:34:43;0.70;99.90
15638;DHT22;26604;53.596;10.042;2023-03-01T03:37:11;0.80;99.90
15638;DHT22;26604;53.596;10.042;2023-03-01T03:39:51;0.90;99.90
15638;DHT22;26604;53.596;10.042;2023-03-01T03:42:20;1.00;99.90
15638;DHT22;26604;53.596;10.042;2023-03-01T03:44:46;1.10;99.90
15638;DHT22;26604;53.596;10.042;2023-03-01T03:47:13;1.20;99.90
15638;DHT22;26604;53.596;10.042;2023-03-01T03:49:40;1.20;99.90
15638;DHT22;26604;53.596;10.042;2023-03-01T03:52:06;1.20;99.90
15638;DHT22;26604;53.596;10.042;2023-03-01T03:54:40;1.30;99.90
15638;DHT22;26604;53.596;10.042;2023-03-01T03:57:07;1.40;99.90
15638;DHT22;26604;53.596;10.042;2023-03-01T03:59:34;1.50;99.90
15638;DHT22;26604;53.596;10.042;2023-03-01T04:02:00;1.50;99.90
15638;DHT22;26604;53.596;10.042;2023-03-01T04:04:27;1.50;99.90
15638;DHT22;26604;53.596;10.042;2023-03-01T04:06:53;1.60;99.90
15638;DHT22;26604;53.596;10.042;2023-03-01T04:09:20;1.60;99.90
15638;DHT22;26604;53.596;10.042;2023-03-01T04:11:48;1.70;99.90
15638;DHT22;26604;53.596;10.042;2023-03-01T04:14:15;1.70;99.90
15638;DHT22;26604;53.596;10.042;2023-03-01T04:16:41;1.70;99.90
15638;DHT22;26604;53.596;10.042;2023-03-01T04:19:08;1.80;99.90
15638;DHT22;26604;53.596;10.042;2023-03-01T04:21:35;1.80;99.90
15638;DHT22;26604;53.596;10.042;2023-03-01T04:24:02;1.80;99.90
15638;DHT22;26604;53.596;10.042;2023-03-01T04:26:29;1.80;99.90
15638;DHT22;26604;53.596;10.042;2023-03-01T04:28:57;1.80;99.90
15638;DHT22;26604;53.596;10.042;2023-03-01T04:31:24;1.90;99.90
15638;DHT22;26604;53.596;10.042;2023-03-01T04:33:51;1.90;99.90
15638;DHT22;26604;53.596;10.042;2023-03-01T04:36:18;1.90;99.90
15638;DHT22;26604;53.596;10.042;2023-03-01T04:38:45;1.90;99.90
15638;DHT22;26604;53.596;10.042;2023-03-01T04:41:14;2.00;99.90
15638;DHT22;26604;53.596;10.042;2023-03-01T04:43:41;2.00;99.90
15638;DHT22;26604;53.596;10.042;2023-03-01T04:46:11;2.50;99.90
15638;DHT22;26604;53.596;10.042;2023-03-01T04:48:38;2.00;99.90
15638;DHT22;26604;53.596;10.042;2023-03-01T04:51:05;2.00;99.90
15638;DHT22;26604;53.596;10.042;2023-03-01T04:53:32;2.10;99.90
15638;DHT22;26604;53.596;10.042;2023-03-01T04:56:01;2.10;99.90
15638;DHT22;26604;53.596;10.042;2023-03-01T04:58:28;2.10;99.90
15638;DHT22;26604;53.596;10.042;2023-03-01T05:00:55;2.10;99.90
15638;DHT22;26604;53.596;10.042;2023-03-01T05:03:23;2.10;99.90
15638;DHT22;26604;53.596;10.042;2023-03-01T05:05:50;2.10;99.90
15638;DHT22;26604;53.596;10.042;2023-03-01T05:08:17;2.20;99.90
15638;DHT22;26604;53.596;10.042;2023-03-01T05:10:46;2.20;99.90
15638;DHT22;26604;53.596;10.042;2023-03-01T05:13:13;2.10;99.90
15638;DHT22;26604;53.596;10.042;2023-03-01T05:15:40;2.20;99.90
15638;DHT22;26604;53.596;10.042;2023-03-01T05:18:07;2.20;99.90
15638;DHT22;26604;53.596;10.042;2023-03-01T05:20:38;2.30;99.90
15638;DHT22;26604;53.596;10.042;2023-03-01T05:23:04;2.30;99.90
15638;DHT22;26604;53.596;10.042;2023-03-01T05:25:31;2.40;99.90
15638;DHT22;26604;53.596;10.042;2023-03-01T05:27:58;2.40;99.90
15638;DHT22;26604;53.596;10.042;2023-03-01T05:30:29;2.40;99.90
15638;DHT22;26604;53.596;10.042;2023-03-01T05:32:56;2.40;99.90
15638;DHT22;26604;53.596;10.042;2023-03-01T05:35:23;2.50;99.90
15638;DHT22;26604;53.596;10.042;2023-03-01T05:37:51;2.50;99.90
15638;DHT22;26604;53.596;10.042;2023-03-01T05:40:18;2.50;99.90
15638;DHT22;26604;53.596;10.042;2023-03-01T05:42:45;2.50;99.90
15638;DHT22;26604;53.596;10.042;2023-03-01T05:45:13;2.50;99.90
15638;DHT22;26604;53.596;10.042;2023-03-01T05:47:40;2.50;99.90
15638;DHT22;26604;53.596;10.042;2023-03-01T05:50:10;2.50;99.90
15638;DHT22;26604;53.596;10.042;2023-03-01T05:52:37;2.50;99.90
15638;DHT22;26604;53.596;10.042;2023-03-01T05:55:05;2.50;99.90
15638;DHT22;26604;53.596;10.042;2023-03-01T05:57:32;2.40;99.90
15638;DHT22;26604;53.596;10.042;2023-03-01T05:59:59;2.40;99.90
15638;DHT22;26604;53.596;10.042;2023-03-01T06:02:25;2.40;99.90
15638;DHT22;26604;53.596;10.042;2023-03-01T06:04:52;2.30;99.90
15638;DHT22;26604;53.596;10.042;2023-03-01T06:07:19;2.30;99.90
15638;DHT22;26604;53.596;10.042;2023-03-01T06:09:45;2.20;99.90
15638;DHT22;26604;53.596;10.042;2023-03-01T06:12:13;2.20;99.90
15638;DHT22;26604;53.596;10.042;2023-03-01T06:14:40;2.10;99.90
15638;DHT22;26604;53.596;10.042;2023-03-01T06:17:07;2.00;99.90
15638;DHT22;26604;53.596;10.042;2023-03-01T06:19:33;2.00;99.90
15638;DHT22;26604;53.596;10.042;2023-03-01T06:22:00;2.00;99.90
15638;DHT22;26604;53.596;10.042;2023-03-01T06:24:30;2.00;99.90
15638;DHT22;26604;53.596;10.042;2023-03-01T06:26:56;2.00;99.90
15638;DHT22;26604;53.596;10.042;2023-03-01T06:29:24;2.00;99.90
15638;DHT22;26604;53.596;10.042;2023-03-01T06:31:51;2.10;99.90
15638;DHT22;26604;53.596;10.042;2023-03-01T06:34:18;2.10;99.90
15638;DHT22;26604;53.596;10.042;2023-03-01T06:36:46;2.20;99.90
15638;DHT22;26604;53.596;10.042;2023-03-01T06:39:12;2.20;99.90
15638;DHT22;26604;53.596;10.042;2023-03-01T06:41:39;2.30;99.90
15638;DHT22;26604;53.596;10.042;2023-03-01T06:44:06;2.40;99.90
15638;DHT22;26604;53.596;10.042;2023-03-01T06:46:34;2.40;99.90
15638;DHT22;26604;53.596;10.042;2023-03-01T06:49:00;2.50;99.90
15638;DHT22;26604;53.596;10.042;2023-03-01T06:51:29;2.50;99.90
15638;DHT22;26604;53.596;10.042;2023-03-01T06:53:56;2.60;99.90
15638;DHT22;26604;53.596;10.042;2023-03-01T06:56:23;2.70;99.90
15638;DHT22;26604;53.596;10.042;2023-03-01T06:58:49;2.80;99.90
15638;DHT22;26604;53.596;10.042;2023-03-01T07:01:16;2.80;99.90
15638;DHT22;26604;53.596;10.042;2023-03-01T07:03:44;2.90;99.90
15638;DHT22;26604;53.596;10.042;2023-03-01T07:06:11;2.90;99.90
15638;DHT22;26604;53.596;10.042;2023-03-01T07:08:38;3.00;99.90
15638;DHT22;26604;53.596;10.042;2023-03-01T07:11:04;3.10;99.90
15638;DHT22;26604;53.596;10.042;2023-03-01T07:13:31;3.10;99.90
15638;DHT22;26604;53.596;10.042;2023-03-01T07:15:58;3.20;99.90
15638;DHT22;26604;53.596;10.042;2023-03-01T07:18:24;3.20;99.90
15638;DHT22;26604;53.596;10.042;2023-03-01T07:20:52;3.20;99.90
15638;DHT22;26604;53.596;10.042;2023-03-01T07:23:19;3.20;99.90
15638;DHT22;26604;53.596;10.042;2023-03-01T07:25:50;3.30;99.90
15638;DHT22;26604;53.596;10.042;2023-03-01T07:28:17;3.30;99.90
15638;DHT22;26604;53.596;10.042;2023-03-01T07:30:43;3.40;99.90
15638;DHT22;26604;53.596;10.042;2023-03-01T07:33:10;3.50;99.90
15638;DHT22;26604;53.596;10.042;2023-03-01T07:35:37;3.50;99.90
15638;DHT22;26604;53.596;10.042;2023-03-01T07:38:05;3.50;99.90
15638;DHT22;26604;53.596;10.042;2023-03-01T07:40:31;3.60;99.90
15638;DHT22;26604;53.596;10.042;2023-03-01T07:42:59;3.60;99.90
15638;DHT22;26604;53.596;10.042;2023-03-01T07:45:26;3.60;99.90
15638;DHT22;26604;53.596;10.042;2023-03-01T07:47:53;3.70;99.90
15638;DHT22;26604;53.596;10.042;2023-03-01T07:50:21;3.70;99.90
15638;DHT22;26604;53.596;10.042;2023-03-01T07:52:48;3.70;99.90
15638;DHT22;26604;53.596;10.042;2023-03-01T07:55:16;3.70;99.90
15638;DHT22;26604;53.596;10.042;2023-03-01T07:57:43;3.80;99.90
15638;DHT22;26604;53.596;10.042;2023-03-01T08:00:10;3.80;99.90
15638;DHT22;26604;53.596;10.042;2023-03-01T08:02:37;3.90;99.90
15638;DHT22;26604;53.596;10.042;2023-03-01T08:05:05;3.90;99.90
15638;DHT22;26604;53.596;10.042;2023-03-01T08:07:32;3.90;99.90
15638;DHT22;26604;53.596;10.042;2023-03-01T08:09:59;3.90;99.90
15638;DHT22;26604;53.596;10.042;2023-03-01T08:12:27;4.00;99.90
15638;DHT22;26604;53.596;10.042;2023-03-01T08:14:53;4.00;99.90
15638;DHT22;26604;53.596;10.042;2023-03-01T08:17:20;4.10;99.90
15638;DHT22;26604;53.596;10.042;2023-03-01T08:19:47;4.20;99.90
15638;DHT22;26604;53.596;10.042;2023-03-01T08:22:14;4.30;99.90
15638;DHT22;26604;53.596;10.042;2023-03-01T08:24:40;4.30;99.90
15638;DHT22;26604;53.596;10.042;2023-03-01T08:27:07;4.30;99.90
15638;DHT22;26604;53.596;10.042;2023-03-01T08:29:35;4.40;99.90
15638;DHT22;26604;53.596;10.042;2023-03-01T08:32:02;4.40;99.90
15638;DHT22;26604;53.596;10.042;2023-03-01T08:34:28;4.50;99.90
15638;DHT22;26604;53.596;10.042;2023-03-01T08:36:56;4.50;99.90
15638;DHT22;26604;53.596;10.042;2023-03-01T08:39:23;4.60;99.90
15638;DHT22;26604;53.596;10.042;2023-03-01T08:41:50;4.70;99.90
15638;DHT22;26604;53.596;10.042;2023-03-01T08:44:16;4.90;99.90
15638;DHT22;26604;53.596;10.042;2023-03-01T08:46:44;5.00;99.90
15638;DHT22;26604;53.596;10.042;2023-03-01T08:49:12;5.10;99.90
15638;DHT22;26604;53.596;10.042;2023-03-01T08:51:40;5.20;99.90
15638;DHT22;26604;53.596;10.042;2023-03-01T08:54:09;5.30;99.90
15638;DHT22;26604;53.596;10.042;2023-03-01T08:56:36;5.30;99.90
15638;DHT22;26604;53.596;10.042;2023-03-01T08:59:03;5.40;99.90
15638;DHT22;26604;53.596;10.042;2023-03-01T09:01:29;5.40;99.90
15638;DHT22;26604;53.596;10.042;2023-03-01T09:03:57;5.50;99.90
15638;DHT22;26604;53.596;10.042;2023-03-01T09:06:24;5.60;99.90
15638;DHT22;26604;53.596;10.042;2023-03-01T09:08:51;5.60;99.90
15638;DHT22;26604;53.596;10.042;2023-03-01T09:11:18;5.60;99.90
15638;DHT22;26604;53.596;10.042;2023-03-01T09:13:46;5.60;99.90
15638;DHT22;26604;53.596;10.042;2023-03-01T09:16:14;5.50;99.90
15638;DHT22;26604;53.596;10.042;2023-03-01T09:18:41;5.50;99.90
15638;DHT22;26604;53.596;10.042;2023-03-01T09:21:14;5.50;99.90
15638;DHT22;26604;53.596;10.042;2023-03-01T09:23:42;5.50;99.90
15638;DHT22;26604;53.596;10.042;2023-03-01T09:26:09;5.50;99.90
15638;DHT22;26604;53.596;10.042;2023-03-01T09:28:36;5.50;99.90
15638;DHT22;26604;53.596;10.042;2023-03-01T09:31:03;5.50;99.90
15638;DHT22;26604;53.596;10.042;2023-03-01T09:33:31;5.60;99.90
15638;DHT22;26604;53.596;10.042;2023-03-01T09:35:58;5.70;99.90
15638;DHT22;26604;53.596;10.042;2023-03-01T09:38:27;5.80;99.90
15638;DHT22;26604;53.596;10.042;2023-03-01T09:40:53;5.80;99.90
15638;DHT22;26604;53.596;10.042;2023-03-01T09:43:21;5.90;99.90
15638;DHT22;26604;53.596;10.042;2023-03-01T09:45:49;6.00;99.90
15638;DHT22;26604;53.596;10.042;2023-03-01T09:48:18;5.90;99.90
15638;DHT22;26604;53.596;10.042;2023-03-01T09:50:47;5.90;99.90
15638;DHT22;26604;53.596;10.042;2023-03-01T09:53:15;5.90;99.90
15638;DHT22;26604;53.596;10.042;2023-03-01T09:55:44;5.90;99.90
15638;DHT22;26604;53.596;10.042;2023-03-01T09:58:26;5.80;99.90
15638;DHT22;26604;53.596;10.042;2023-03-01T10:00:56;5.80;99.90
15638;DHT22;26604;53.596;10.042;2023-03-01T10:03:25;5.70;99.90
15638;DHT22;26604;53.596;10.042;2023-03-01T10:05:55;5.70;99.90
15638;DHT22;26604;53.596;10.042;2023-03-01T10:08:27;5.70;99.90
15638;DHT22;26604;53.596;10.042;2023-03-01T10:10:57;5.60;99.90
15638;DHT22;26604;53.596;10.042;2023-03-01T10:13:26;5.50;99.90
15638;DHT22;26604;53.596;10.042;2023-03-01T10:15:55;5.40;99.90
15638;DHT22;26604;53.596;10.042;2023-03-01T10:18:23;5.30;99.90
15638;DHT22;26604;53.596;10.042;2023-03-01T10:20:53;5.20;99.90
15638;DHT22;26604;53.596;10.042;2023-03-01T10:23:21;5.20;99.90
15638;DHT22;26604;53.596;10.042;2023-03-01T10:25:52;5.20;99.90
15638;DHT22;26604;53.596;10.042;2023-03-01T10:28:24;5.20;99.90
15638;DHT22;26604;53.596;10.042;2023-03-01T10:30:51;5.10;99.90
15638;DHT22;26604;53.596;10.042;2023-03-01T10:33:20;5.20;99.90
15638;DHT22;26604;53.596;10.042;2023-03-01T10:35:47;5.20;99.90
15638;DHT22;26604;53.596;10.042;2023-03-01T10:38:15;5.20;99.90
15638;DHT22;26604;53.596;10.042;2023-03-01T10:40:52;5.20;99.90
15638;DHT22;26604;53.596;10.042;2023-03-01T10:43:19;5.30;99.90
15638;DHT22;26604;53.596;10.042;2023-03-01T10:45:47;5.40;99.90
15638;DHT22;26604;53.596;10.042;2023-03-01T10:48:15;5.40;99.90
15638;DHT22;26604;53.596;10.042;2023-03-01T10:50:42;5.40;99.90
15638;DHT22;26604;53.596;10.042;2023-03-01T10:53:20;5.50;99.90
15638;DHT22;26604;53.596;10.042;2023-03-01T10:55:49;5.40;99.90
15638;DHT22;26604;53.596;10.042;2023-03-01T10:58:22;5.50;99.90
15638;DHT22;26604;53.596;10.042;2023-03-01T11:00:51;5.50;99.90
15638;DHT22;26604;53.596;10.042;2023-03-01T11:03:20;5.50;99.90
15638;DHT22;26604;53.596;10.042;2023-03-01T11:05:52;5.50;99.90
15638;DHT22;26604;53.596;10.042;2023-03-01T11:08:29;5.60;99.90
15638;DHT22;26604;53.596;10.042;2023-03-01T11:11:03;5.60;99.90
15638;DHT22;26604;53.596;10.042;2023-03-01T11:13:30;5.60;99.90
15638;DHT22;26604;53.596;10.042;2023-03-01T11:16:03;5.70;99.90
15638;DHT22;26604;53.596;10.042;2023-03-01T11:18:32;5.80;99.90
15638;DHT22;26604;53.596;10.042;2023-03-01T11:20:59;5.90;99.90
15638;DHT22;26604;53.596;10.042;2023-03-01T11:23:26;5.90;99.90
15638;DHT22;26604;53.596;10.042;2023-03-01T11:25:54;6.00;99.90
15638;DHT22;26604;53.596;10.042;2023-03-01T11:28:22;6.00;99.90
15638;DHT22;26604;53.596;10.042;2023-03-01T11:30:50;6.10;99.90
15638;DHT22;26604;53.596;10.042;2023-03-01T11:33:23;6.20;99.90
15638;DHT22;26604;53.596;10.042;2023-03-01T11:35:53;6.20;99.90
15638;DHT22;26604;53.596;10.042;2023-03-01T11:38:22;6.30;99.90
15638;DHT22;26604;53.596;10.042;2023-03-01T11:40:50;6.40;99.90
15638;DHT22;26604;53.596;10.042;2023-03-01T11:43:20;6.40;99.90
15638;DHT22;26604;53.596;10.042;2023-03-01T11:45:55;6.40;99.90
15638;DHT22;26604;53.596;10.042;2023-03-01T11:48:31;6.50;99.90
15638;DHT22;26604;53.596;10.042;2023-03-01T11:51:01;6.60;99.90
15638;DHT22;26604;53.596;10.042;2023-03-01T11:53:34;6.70;99.90
15638;DHT22;26604;53.596;10.042;2023-03-01T11:56:09;6.70;99.90
15638;DHT22;26604;53.596;10.042;2023-03-01T11:58:45;6.80;99.90
15638;DHT22;26604;53.596;10.042;2023-03-01T12:01:30;6.80;99.90
15638;DHT22;26604;53.596;10.042;2023-03-01T12:04:17;6.90;99.90
15638;DHT22;26604;53.596;10.042;2023-03-01T12:06:50;7.00;99.90
15638;DHT22;26604;53.596;10.042;2023-03-01T12:09:22;7.10;99.90
15638;DHT22;26604;53.596;10.042;2023-03-01T12:12:04;7.20;99.90
15638;DHT22;26604;53.596;10.042;2023-03-01T12:14:41;7.30;99.90
15638;DHT22;26604;53.596;10.042;2023-03-01T12:17:16;7.30;99.90
15638;DHT22;26604;53.596;10.042;2023-03-01T12:22:31;7.40;99.90
15638;DHT22;26604;53.596;10.042;2023-03-01T12:31:00;7.50;99.90
15638;DHT22;26604;53.596;10.042;2023-03-01T12:33:34;7.60;99.90
15638;DHT22;26604;53.596;10.042;2023-03-01T12:38:55;7.80;99.90
15638;DHT22;26604;53.596;10.042;2023-03-01T12:41:36;7.90;99.90
15638;DHT22;26604;53.596;10.042;2023-03-01T12:44:08;7.90;99.90
15638;DHT22;26604;53.596;10.042;2023-03-01T12:46:41;7.90;99.90
15638;DHT22;26604;53.596;10.042;2023-03-01T12:49:12;7.90;99.90
15638;DHT22;26604;53.596;10.042;2023-03-01T12:51:40;7.90;99.90
15638;DHT22;26604;53.596;10.042;2023-03-01T12:54:14;7.90;99.90
15638;DHT22;26604;53.596;10.042;2023-03-01T12:56:41;7.90;99.90
15638;DHT22;26604;53.596;10.042;2023-03-01T12:59:12;7.90;99.90
15638;DHT22;26604;53.596;10.042;2023-03-01T13:01:41;7.90;99.90
15638;DHT22;26604;53.596;10.042;2023-03-01T13:04:18;8.00;99.90
15638;DHT22;26604;53.596;10.042;2023-03-01T13:06:52;8.00;99.90
15638;DHT22;26604;53.596;10.042;2023-03-01T13:09:25;8.00;99.90
15638;DHT22;26604;53.596;10.042;2023-03-01T13:11:56;8.00;99.90
15638;DHT22;26604;53.596;10.042;2023-03-01T13:14:35;8.00;99.90
15638;DHT22;26604;53.596;10.042;2023-03-01T13:17:02;8.10;99.90
15638;DHT22;26604;53.596;10.042;2023-03-01T13:19:35;8.10;99.90
15638;DHT22;26604;53.596;10.042;2023-03-01T13:22:24;8.10;99.90
15638;DHT22;26604;53.596;10.042;2023-03-01T13:25:01;8.10;99.90
15638;DHT22;26604;53.596;10.042;2023-03-01T13:27:28;8.10;99.90
15638;DHT22;26604;53.596;10.042;2023-03-01T13:29:56;8.10;99.90
15638;DHT22;26604;53.596;10.042;2023-03-01T13:32:25;8.10;99.90
15638;DHT22;26604;53.596;10.042;2023-03-01T13:34:57;8.10;99.90
15638;DHT22;26604;53.596;10.042;2023-03-01T13:37:31;8.20;99.90
15638;DHT22;26604;53.596;10.042;2023-03-01T13:39:59;8.20;99.90
15638;DHT22;26604;53.596;10.042;2023-03-01T13:42:33;8.20;99.90
15638;DHT22;26604;53.596;10.042;2023-03-01T13:45:02;8.20;99.90
15638;DHT22;26604;53.596;10.042;2023-03-01T13:47:29;8.20;99.90
15638;DHT22;26604;53.596;10.042;2023-03-01T13:49:57;8.20;99.90
15638;DHT22;26604;53.596;10.042;2023-03-01T13:52:34;8.20;99.90
15638;DHT22;26604;53.596;10.042;2023-03-01T13:55:03;8.10;99.90
15638;DHT22;26604;53.596;10.042;2023-03-01T13:57:32;8.10;99.90
15638;DHT22;26604;53.596;10.042;2023-03-01T14:00:00;8.10;99.90
15638;DHT22;26604;53.596;10.042;2023-03-01T14:02:28;8.00;99.90
15638;DHT22;26604;53.596;10.042;2023-03-01T14:04:58;8.10;99.90
15638;DHT22;26604;53.596;10.042;2023-03-01T14:07:26;8.00;99.90
15638;DHT22;26604;53.596;10.042;2023-03-01T14:09:55;8.00;99.90
15638;DHT22;26604;53.596;10.042;2023-03-01T14:12:25;8.00;99.90
15638;DHT22;26604;53.596;10.042;2023-03-01T14:14:56;8.00;99.90
15638;DHT22;26604;53.596;10.042;2023-03-01T14:17:28;8.00;99.90
15638;DHT22;26604;53.596;10.042;2023-03-01T14:19:58;8.00;99.90
15638;DHT22;26604;53.596;10.042;2023-03-01T14:22:26;8.10;99.90
15638;DHT22;26604;53.596;10.042;2023-03-01T14:24:55;8.00;99.90
15638;DHT22;26604;53.596;10.042;2023-03-01T14:27:22;8.00;99.90
15638;DHT22;26604;53.596;10.042;2023-03-01T14:29:58;8.00;99.90
15638;DHT22;26604;53.596;10.042;2023-03-01T14:32:25;8.00;99.90
15638;DHT22;26604;53.596;10.042;2023-03-01T14:34:52;8.10;99.90
15638;DHT22;26604;53.596;10.042;2023-03-01T14:37:20;8.20;99.90
15638;DHT22;26604;53.596;10.042;2023-03-01T14:39:48;8.20;99.90
15638;DHT22;26604;53.596;10.042;2023-03-01T14:42:14;8.10;99.90
15638;DHT22;26604;53.596;10.042;2023-03-01T14:44:42;8.10;99.90
15638;DHT22;26604;53.596;10.042;2023-03-01T14:47:13;8.10;99.90
15638;DHT22;26604;53.596;10.042;2023-03-01T14:49:54;8.10;99.90
15638;DHT22;26604;53.596;10.042;2023-03-01T14:52:22;8.10;99.90
15638;DHT22;26604;53.596;10.042;2023-03-01T14:54:52;8.20;99.90
15638;DHT22;26604;53.596;10.042;2023-03-01T14:57:20;8.10;99.90
15638;DHT22;26604;53.596;10.042;2023-03-01T14:59:48;8.10;99.90
15638;DHT22;26604;53.596;10.042;2023-03-01T15:02:18;8.10;99.90
15638;DHT22;26604;53.596;10.042;2023-03-01T15:04:46;8.00;99.90
15638;DHT22;26604;53.596;10.042;2023-03-01T15:07:14;8.00;99.90
15638;DHT22;26604;53.596;10.042;2023-03-01T15:09:40;8.00;99.90
15638;DHT22;26604;53.596;10.042;2023-03-01T15:14:53;8.00;99.90
15638;DHT22;26604;53.596;10.042;2023-03-01T15:17:22;8.00;99.90
15638;DHT22;26604;53.596;10.042;2023-03-01T15:19:52;8.10;99.90
15638;DHT22;26604;53.596;10.042;2023-03-01T15:22:19;8.10;99.90
15638;DHT22;26604;53.596;10.042;2023-03-01T15:24:47;8.00;99.90
15638;DHT22;26604;53.596;10.042;2023-03-01T15:27:15;8.00;99.90
15638;DHT22;26604;53.596;10.042;2023-03-01T15:29:47;8.00;99.90
15638;DHT22;26604;53.596;10.042;2023-03-01T15:32:24;7.90;99.90
15638;DHT22;26604;53.596;10.042;2023-03-01T15:34:51;7.90;99.90
15638;DHT22;26604;53.596;10.042;2023-03-01T15:39:59;7.80;99.90
15638;DHT22;26604;53.596;10.042;2023-03-01T15:42:36;7.70;99.90
15638;DHT22;26604;53.596;10.042;2023-03-01T15:45:07;7.80;99.90
15638;DHT22;26604;53.596;10.042;2023-03-01T15:47:46;7.70;99.90
15638;DHT22;26604;53.596;10.042;2023-03-01T15:50:16;7.70;99.90
15638;DHT22;26604;53.596;10.042;2023-03-01T15:52:43;7.70;99.90
15638;DHT22;26604;53.596;10.042;2023-03-01T15:55:14;7.70;99.90
15638;DHT22;26604;53.596;10.042;2023-03-01T15:57:41;7.60;99.90